createdAt,value
2023-05-21T00:02:01.604Z,26.88
2023-05-21T00:04:29.892Z,27.95
2023-05-21T00:06:58.934Z,25.77
2023-05-21T00:09:27.008Z,24.42
2023-05-21T00:11:55.293Z,23.23
2023-05-21T00:14:23.851Z,26.30
2023-05-21T00:16:52.885Z,26.52
2023-05-21T00:19:22.793Z,24.55
2023-05-21T00:21:51.268Z,27.33
2023-05-21T00:24:19.659Z,25.10
2023-05-21T00:26:48.236Z,25.48
2023-05-21T00:29:16.425Z,25.67
2023-05-21T00:31:44.666Z,26.13
2023-05-21T00:34:15.298Z,25.88
2023-05-21T00:36:46.378Z,26.63
2023-05-21T00:39:15.168Z,26.58
2023-05-21T00:41:47.023Z,26.10
2023-05-21T00:44:16.915Z,25.58
2023-05-21T00:46:45.700Z,25.95
2023-05-21T00:49:14.976Z,23.95
2023-05-21T00:51:45.280Z,24.60
2023-05-21T00:54:13.634Z,23.67
2023-05-21T00:56:42.593Z,23.25
2023-05-21T00:59:10.842Z,24.45
2023-05-21T01:01:39.171Z,22.30
2023-05-21T01:04:07.395Z,24.15
2023-05-21T01:06:35.504Z,24.02
2023-05-21T01:09:07.322Z,25.48
2023-05-21T01:11:41.537Z,26.27
2023-05-21T01:14:12.770Z,25.30
2023-05-21T01:16:42.922Z,26.98
2023-05-21T01:19:14.942Z,27.17
2023-05-21T01:21:46.916Z,26.48
2023-05-21T01:24:17.359Z,26.63
2023-05-21T01:26:46.978Z,26.35
2023-05-21T01:29:17.580Z,26.35
2023-05-21T01:31:55.938Z,25.65
2023-05-21T01:34:30.018Z,24.50
2023-05-21T01:37:03.510Z,26.10
2023-05-21T01:39:38.832Z,24.00
2023-05-21T01:42:11.621Z,27.17
2023-05-21T01:44:42.264Z,27.40
2023-05-21T01:47:11.198Z,28.23
2023-05-21T01:49:40.127Z,26.05
2023-05-21T01:52:09.596Z,25.48
2023-05-21T01:54:39.040Z,25.55
2023-05-21T01:57:08.490Z,23.50
2023-05-21T01:59:37.888Z,24.90
2023-05-21T02:02:06.802Z,26.38
2023-05-21T02:04:35.179Z,26.38
2023-05-21T02:07:03.894Z,22.85
2023-05-21T02:09:32.373Z,27.35
2023-05-21T02:12:02.547Z,23.60
2023-05-21T02:14:30.817Z,23.58
2023-05-21T02:16:58.987Z,23.85
2023-05-21T02:19:27.581Z,22.67
2023-05-21T02:21:56.350Z,23.63
2023-05-21T02:24:25.013Z,24.02
2023-05-21T02:26:53.415Z,23.30
2023-05-21T02:29:23.199Z,23.20
2023-05-21T02:31:51.782Z,24.90
2023-05-21T02:34:21.204Z,21.95
2023-05-21T02:36:52.399Z,23.48
2023-05-21T02:39:20.815Z,23.85
2023-05-21T02:41:49.107Z,24.80
2023-05-21T02:44:19.220Z,22.42
2023-05-21T02:46:49.143Z,26.88
2023-05-21T02:49:19.131Z,23.23
2023-05-21T02:51:48.734Z,20.88
2023-05-21T02:54:16.856Z,23.13
2023-05-21T02:56:45.383Z,24.42
2023-05-21T02:59:13.836Z,20.83
2023-05-21T03:01:42.569Z,23.02
2023-05-21T03:04:13.563Z,22.45
2023-05-21T03:06:42.060Z,24.90
2023-05-21T03:09:10.089Z,23.63
2023-05-21T03:11:38.198Z,24.60
2023-05-21T03:14:06.792Z,23.27
2023-05-21T03:16:38.159Z,24.13
2023-05-21T03:19:06.216Z,23.65
2023-05-21T03:21:36.304Z,24.75
2023-05-21T03:24:05.640Z,23.95
2023-05-21T03:26:33.848Z,22.40
2023-05-21T03:29:02.496Z,20.95
2023-05-21T03:31:31.141Z,23.10
2023-05-21T03:34:20.514Z,20.15
2023-05-21T03:36:51.673Z,21.35
2023-05-21T03:39:21.084Z,20.55
2023-05-21T03:41:50.188Z,20.60
2023-05-21T03:44:25.658Z,22.60
2023-05-21T03:47:02.470Z,21.05
2023-05-21T03:49:36.425Z,23.48
2023-05-21T03:52:07.251Z,24.65
2023-05-21T03:54:36.010Z,23.35
2023-05-21T03:57:07.483Z,23.77
2023-05-21T03:59:36.181Z,23.63
2023-05-21T04:02:04.914Z,23.48
2023-05-21T04:04:35.103Z,22.80
2023-05-21T04:07:04.590Z,24.77
2023-05-21T04:09:36.503Z,25.67
2023-05-21T04:12:05.508Z,22.98
2023-05-21T04:14:34.607Z,23.15
2023-05-21T04:17:05.349Z,22.98
2023-05-21T04:19:34.242Z,21.20
2023-05-21T04:22:04.468Z,23.40
2023-05-21T04:24:34.686Z,23.55
2023-05-21T04:27:14.295Z,20.67
2023-05-21T04:29:43.132Z,22.45
2023-05-21T04:32:15.250Z,23.27
2023-05-21T04:34:43.437Z,22.92
2023-05-21T04:37:12.453Z,21.83
2023-05-21T04:39:42.764Z,23.08
2023-05-21T04:42:11.312Z,21.92
2023-05-21T04:44:41.854Z,24.40
2023-05-21T04:47:12.471Z,24.23
2023-05-21T04:49:40.762Z,23.70
2023-05-21T04:52:09.856Z,22.45
2023-05-21T04:54:39.159Z,23.50
2023-05-21T04:57:09.129Z,24.40
2023-05-21T04:59:37.340Z,24.50
2023-05-21T05:02:06.044Z,26.98
2023-05-21T05:04:34.390Z,25.10
2023-05-21T05:07:03.085Z,24.20
2023-05-21T05:09:31.846Z,25.85
2023-05-21T05:12:00.172Z,24.92
2023-05-21T05:14:30.071Z,25.70
2023-05-21T05:17:01.024Z,27.92
2023-05-21T05:19:29.776Z,27.02
2023-05-21T05:21:58.676Z,25.55
2023-05-21T05:24:27.919Z,22.90
2023-05-21T05:26:56.083Z,26.17
2023-05-21T05:29:24.565Z,26.10
2023-05-21T05:31:54.253Z,25.77
2023-05-21T05:34:22.665Z,25.90
2023-05-21T05:36:50.871Z,26.65
2023-05-21T05:39:19.374Z,23.50
2023-05-21T05:41:48.499Z,23.45
2023-05-21T05:44:17.241Z,25.52
2023-05-21T05:46:47.026Z,26.75
2023-05-21T05:49:17.199Z,22.02
2023-05-21T05:51:46.084Z,23.40
2023-05-21T05:54:14.755Z,23.05
2023-05-21T05:56:43.022Z,24.65
2023-05-21T05:59:11.632Z,22.90
2023-05-21T06:01:42.886Z,22.73
2023-05-21T06:04:12.236Z,25.83
2023-05-21T06:06:42.175Z,25.25
2023-05-21T06:09:11.379Z,23.48
2023-05-21T06:11:40.250Z,23.13
2023-05-21T06:14:08.432Z,25.95
2023-05-21T06:16:37.436Z,27.38
2023-05-21T06:19:05.724Z,24.73
2023-05-21T06:21:33.953Z,26.98
2023-05-21T06:24:05.943Z,24.75
2023-05-21T06:26:34.101Z,23.77
2023-05-21T06:29:04.020Z,22.20
2023-05-21T06:31:34.186Z,23.02
2023-05-21T06:34:02.646Z,22.20
2023-05-21T06:36:32.677Z,27.00
2023-05-21T06:39:01.438Z,26.85
2023-05-21T06:41:31.118Z,24.30
2023-05-21T06:44:03.495Z,24.65
2023-05-21T06:47:02.877Z,24.95
2023-05-21T06:49:33.545Z,24.48
2023-05-21T06:52:02.323Z,21.85
2023-05-21T06:54:30.802Z,22.33
2023-05-21T06:57:00.395Z,21.85
2023-05-21T06:59:28.731Z,21.90
2023-05-21T07:01:56.776Z,19.23
2023-05-21T07:04:25.226Z,19.27
2023-05-21T07:06:53.906Z,38.58
2023-05-21T07:09:22.074Z,19.83
2023-05-21T07:11:53.043Z,20.58
2023-05-21T07:14:22.830Z,21.08
2023-05-21T07:16:52.185Z,19.17
2023-05-21T07:19:21.616Z,17.63
2023-05-21T07:21:51.575Z,17.58
2023-05-21T07:24:19.725Z,19.50
2023-05-21T07:26:48.129Z,18.57
2023-05-21T07:29:16.569Z,18.87
2023-05-21T07:31:46.587Z,17.03
2023-05-21T07:34:14.948Z,16.10
2023-05-21T07:36:43.524Z,16.10
2023-05-21T07:39:11.608Z,15.93
2023-05-21T07:41:40.002Z,16.42
2023-05-21T07:44:10.076Z,17.77
2023-05-21T07:46:42.583Z,17.13
2023-05-21T07:49:16.988Z,16.95
2023-05-21T07:51:47.362Z,17.63
2023-05-21T07:54:17.148Z,16.55
2023-05-21T07:56:46.458Z,17.23
2023-05-21T07:59:27.263Z,15.73
2023-05-21T08:01:55.525Z,16.13
2023-05-21T08:04:25.069Z,16.90
2023-05-21T08:06:53.985Z,17.97
2023-05-21T08:09:21.962Z,16.70
2023-05-21T08:11:50.264Z,18.40
2023-05-21T08:14:18.952Z,18.50
2023-05-21T08:16:47.783Z,18.20
2023-05-21T08:19:16.340Z,19.90
2023-05-21T08:21:46.628Z,20.25
2023-05-21T08:24:15.268Z,17.67
2023-05-21T08:26:44.773Z,18.00
2023-05-21T08:29:13.436Z,17.53
2023-05-21T08:31:41.793Z,18.23
2023-05-21T08:34:10.337Z,17.80
2023-05-21T08:36:50.367Z,17.17
2023-05-21T08:39:48.036Z,17.83
2023-05-21T08:42:36.354Z,17.90
2023-05-21T08:45:07.529Z,17.97
2023-05-21T08:47:37.244Z,15.80
2023-05-21T08:50:10.357Z,15.93
2023-05-21T08:52:40.841Z,17.00
2023-05-21T08:55:10.506Z,18.13
2023-05-21T08:57:44.552Z,17.33
2023-05-21T09:00:16.327Z,19.50
2023-05-21T09:02:46.626Z,16.30
2023-05-21T09:05:17.191Z,17.43
2023-05-21T09:07:52.754Z,18.43
2023-05-21T09:10:38.324Z,17.03
2023-05-21T09:13:08.144Z,18.50
2023-05-21T09:15:37.456Z,17.00
2023-05-21T09:18:06.037Z,18.30
2023-05-21T09:20:44.390Z,17.73
2023-05-21T09:23:18.322Z,18.10
2023-05-21T09:25:48.836Z,19.83
2023-05-21T09:28:32.266Z,17.07
2023-05-21T09:31:05.077Z,17.67
2023-05-21T09:33:34.996Z,18.47
2023-05-21T09:36:03.765Z,17.30
2023-05-21T09:38:35.218Z,15.67
2023-05-21T09:41:06.510Z,15.87
2023-05-21T09:43:36.164Z,17.00
2023-05-21T09:46:04.680Z,14.97
2023-05-21T09:48:35.562Z,16.70
2023-05-21T09:51:16.036Z,15.97
2023-05-21T09:53:50.223Z,15.73
2023-05-21T09:56:23.545Z,18.07
2023-05-21T09:58:56.798Z,16.57
2023-05-21T10:01:26.408Z,18.53
2023-05-21T10:03:57.578Z,17.80
2023-05-21T10:06:27.496Z,17.50
2023-05-21T10:08:57.824Z,19.10
2023-05-21T10:11:33.172Z,18.30
2023-05-21T10:14:07.496Z,17.00
2023-05-21T10:16:36.938Z,17.90
2023-05-21T10:19:06.259Z,15.90
2023-05-21T10:21:34.990Z,16.60
2023-05-21T10:24:05.599Z,15.60
2023-05-21T10:26:34.323Z,14.45
2023-05-21T10:29:03.968Z,14.47
2023-05-21T10:31:33.589Z,13.07
2023-05-21T10:34:02.497Z,12.37
2023-05-21T10:36:32.935Z,13.13
2023-05-21T10:39:03.304Z,14.50
2023-05-21T10:41:43.236Z,15.57
2023-05-21T10:44:23.457Z,13.90
2023-05-21T10:47:10.362Z,13.70
2023-05-21T10:50:02.797Z,13.97
2023-05-21T10:52:45.696Z,14.00
2023-05-21T10:55:24.850Z,11.90
2023-05-21T10:58:24.321Z,12.98
2023-05-21T11:00:55.949Z,13.10
2023-05-21T11:03:24.813Z,14.60
2023-05-21T11:05:55.298Z,13.70
2023-05-21T11:08:24.614Z,15.77
2023-05-21T11:10:54.058Z,14.00
2023-05-21T11:13:26.813Z,13.47
2023-05-21T11:16:09.330Z,15.13
2023-05-21T11:19:01.226Z,17.73
2023-05-21T11:21:31.771Z,13.73
2023-05-21T11:24:11.178Z,15.90
2023-05-21T11:27:05.854Z,17.40
2023-05-21T11:29:44.507Z,16.40
2023-05-21T11:32:21.043Z,15.60
2023-05-21T11:34:49.786Z,16.38
2023-05-21T11:37:35.917Z,15.18
2023-05-21T11:44:40.203Z,15.45
2023-05-21T11:47:11.487Z,15.75
2023-05-21T11:49:40.626Z,13.68
2023-05-21T11:52:10.138Z,15.52
2023-05-21T11:54:42.070Z,15.80
2023-05-21T11:57:10.266Z,16.33
2023-05-21T11:59:38.950Z,19.55
2023-05-21T12:02:07.697Z,20.05
2023-05-21T12:04:37.825Z,19.05
2023-05-21T12:07:07.667Z,18.38
2023-05-21T12:09:40.372Z,18.67
2023-05-21T12:12:10.770Z,19.40
2023-05-21T12:14:38.961Z,19.52
2023-05-21T12:17:09.714Z,19.90
2023-05-21T12:19:39.504Z,19.45
2023-05-21T12:22:10.171Z,18.80
2023-05-21T12:24:39.802Z,16.60
2023-05-21T12:27:59.067Z,17.83
2023-05-21T12:30:27.617Z,11.30
2023-05-21T12:32:59.750Z,8.75
2023-05-21T12:35:29.712Z,8.57
2023-05-21T12:37:57.938Z,7.93
2023-05-21T12:40:38.424Z,7.93
2023-05-21T12:43:07.489Z,6.57
2023-05-21T12:45:36.749Z,6.37
2023-05-21T12:48:05.670Z,5.90
2023-05-21T12:50:36.241Z,6.13
2023-05-21T12:53:06.606Z,4.90
2023-05-21T12:55:38.102Z,5.90
2023-05-21T12:58:09.012Z,4.90
2023-05-21T13:00:39.102Z,4.70
2023-05-21T13:03:07.779Z,5.80
2023-05-21T13:05:41.761Z,5.67
2023-05-21T13:08:10.789Z,6.83
2023-05-21T13:10:39.103Z,7.43
2023-05-21T13:13:07.982Z,9.30
2023-05-21T13:15:36.365Z,10.00
2023-05-21T13:18:06.040Z,9.57
2023-05-21T13:20:34.372Z,9.30
2023-05-21T13:23:06.708Z,9.87
2023-05-21T13:25:35.913Z,10.27
2023-05-21T13:28:05.946Z,10.20
2023-05-21T13:30:34.390Z,12.00
2023-05-21T13:33:03.900Z,13.40
2023-05-21T13:35:35.388Z,11.67
2023-05-21T13:38:05.006Z,9.82
2023-05-21T13:40:33.446Z,10.87
2023-05-21T13:43:01.736Z,10.53
2023-05-21T13:45:30.214Z,9.77
2023-05-21T13:47:59.553Z,9.30
2023-05-21T13:50:28.502Z,9.55
2023-05-21T13:52:56.836Z,8.70
2023-05-21T13:55:26.405Z,9.45
2023-05-21T13:57:58.314Z,8.48
2023-05-21T14:00:27.970Z,9.02
2023-05-21T14:02:56.350Z,8.20
2023-05-21T14:05:24.700Z,7.57
2023-05-21T14:07:52.843Z,8.20
2023-05-21T14:10:21.786Z,7.55
2023-05-21T14:12:51.708Z,7.00
2023-05-21T14:15:20.097Z,7.65
2023-05-21T14:17:48.450Z,6.80
2023-05-21T14:20:16.630Z,6.75
2023-05-21T14:22:44.571Z,6.50
2023-05-21T14:25:13.264Z,7.70
2023-05-21T14:27:41.353Z,8.10
2023-05-21T14:30:12.221Z,7.50
2023-05-21T14:32:40.567Z,8.40
2023-05-21T14:35:34.342Z,8.60
2023-05-21T14:38:02.521Z,7.70
2023-05-21T14:40:30.953Z,7.65
2023-05-21T14:42:59.031Z,9.07
2023-05-21T14:45:28.776Z,8.10
2023-05-21T14:47:57.075Z,7.97
2023-05-21T14:50:25.603Z,7.85
2023-05-21T14:52:53.814Z,7.50
2023-05-21T14:55:22.668Z,7.90
2023-05-21T14:57:51.144Z,8.13
2023-05-21T15:00:19.983Z,8.88
2023-05-21T15:02:49.752Z,8.23
2023-05-21T15:05:19.315Z,8.07
2023-05-21T15:07:47.561Z,7.55
2023-05-21T15:10:17.240Z,7.85
2023-05-21T15:12:47.286Z,8.27
2023-05-21T15:15:17.167Z,6.82
2023-05-21T15:17:45.630Z,7.38
2023-05-21T15:20:15.565Z,6.63
2023-05-21T15:22:43.856Z,7.65
2023-05-21T15:25:12.447Z,6.82
2023-05-21T15:27:41.831Z,6.35
2023-05-21T15:30:10.523Z,7.10
2023-05-21T15:32:38.512Z,6.75
2023-05-21T15:35:07.705Z,7.60
2023-05-21T15:37:37.618Z,8.27
2023-05-21T15:40:08.861Z,9.50
2023-05-21T15:42:37.353Z,9.50
2023-05-21T15:45:06.246Z,10.35
2023-05-21T15:47:35.219Z,9.52
2023-05-21T15:50:04.100Z,9.02
2023-05-21T15:52:32.613Z,9.65
2023-05-21T15:55:03.236Z,9.20
2023-05-21T15:57:32.279Z,9.75
2023-05-21T16:00:01.007Z,9.13
2023-05-21T16:02:29.614Z,8.88
2023-05-21T16:04:58.230Z,9.00
2023-05-21T16:07:26.304Z,9.23
2023-05-21T16:09:54.884Z,8.27
2023-05-21T16:12:24.822Z,8.25
2023-05-21T16:14:53.234Z,8.57
2023-05-21T16:17:21.467Z,8.40
2023-05-21T16:19:50.269Z,7.90
2023-05-21T16:22:20.351Z,8.57
2023-05-21T16:24:48.548Z,9.60
2023-05-21T16:27:17.069Z,7.85
2023-05-21T16:29:47.696Z,8.88
2023-05-21T16:32:16.414Z,9.32
2023-05-21T16:34:45.250Z,10.10
2023-05-21T16:37:13.526Z,9.27
2023-05-21T16:39:42.177Z,8.70
2023-05-21T16:42:10.664Z,7.88
2023-05-21T16:44:39.399Z,7.95
2023-05-21T16:47:08.866Z,7.10
2023-05-21T16:49:37.257Z,7.03
2023-05-21T16:52:05.814Z,7.22
2023-05-21T16:54:34.496Z,6.70
2023-05-21T16:57:03.036Z,7.75
2023-05-21T16:59:31.370Z,6.60
2023-05-21T17:01:59.836Z,6.72
2023-05-21T17:04:30.470Z,7.25
2023-05-21T17:06:58.848Z,8.40
2023-05-21T17:09:27.321Z,7.68
2023-05-21T17:11:56.128Z,8.30
2023-05-21T17:14:33.817Z,7.07
2023-05-21T17:17:03.284Z,7.35
2023-05-21T17:19:32.730Z,7.80
2023-05-21T17:22:00.924Z,7.95
2023-05-21T17:24:29.156Z,8.80
2023-05-21T17:26:57.655Z,8.77
2023-05-21T17:29:26.250Z,7.28
2023-05-21T17:31:54.865Z,8.52
2023-05-21T17:34:26.640Z,9.52
2023-05-21T17:36:57.802Z,8.20
2023-05-21T17:39:26.920Z,8.60
2023-05-21T17:41:56.936Z,7.20
2023-05-21T17:44:25.362Z,7.93
2023-05-21T17:46:54.605Z,8.02
2023-05-21T17:49:22.798Z,8.25
2023-05-21T17:51:51.086Z,9.70
2023-05-21T17:54:21.563Z,8.07
2023-05-21T17:56:49.849Z,11.63
2023-05-21T17:59:18.230Z,8.18
2023-05-21T18:01:46.719Z,9.00
2023-05-21T18:04:15.074Z,8.57
2023-05-21T18:06:44.900Z,9.80
2023-05-21T18:09:14.515Z,9.52
2023-05-21T18:11:45.641Z,9.13
2023-05-21T18:14:14.270Z,8.98
2023-05-21T18:16:42.650Z,9.00
2023-05-21T18:19:11.130Z,9.38
2023-05-21T18:21:39.707Z,7.57
2023-05-21T18:24:08.621Z,8.30
2023-05-21T18:26:37.184Z,9.10
2023-05-21T18:29:07.262Z,8.93
2023-05-21T18:31:35.788Z,9.82
2023-05-21T18:34:03.939Z,9.25
2023-05-21T18:36:38.441Z,9.55
2023-05-21T18:39:07.803Z,9.25
2023-05-21T18:41:37.421Z,9.73
2023-05-21T18:44:07.575Z,9.75
2023-05-21T18:46:36.638Z,9.60
2023-05-21T18:49:06.255Z,10.20
2023-05-21T18:51:34.422Z,9.18
2023-05-21T18:54:02.950Z,11.07
2023-05-21T18:56:31.223Z,9.48
2023-05-21T18:58:59.675Z,9.65
2023-05-21T19:01:29.648Z,9.40
2023-05-21T19:03:58.165Z,8.73
2023-05-21T19:06:27.850Z,10.77
2023-05-21T19:08:56.978Z,9.70
2023-05-21T19:11:27.612Z,9.20
2023-05-21T19:13:56.198Z,8.85
2023-05-21T19:16:24.478Z,9.85
2023-05-21T19:18:54.696Z,9.10
2023-05-21T19:21:23.261Z,8.35
2023-05-21T19:23:53.611Z,10.82
2023-05-21T19:26:22.924Z,9.93
2023-05-21T19:28:53.980Z,8.98
2023-05-21T19:31:22.537Z,8.93
2023-05-21T19:33:51.154Z,10.05
2023-05-21T19:36:22.208Z,11.00
2023-05-21T19:38:51.209Z,10.25
2023-05-21T19:41:21.639Z,9.85
2023-05-21T19:43:50.265Z,9.45
2023-05-21T19:46:20.315Z,10.15
2023-05-21T19:48:48.959Z,10.65
2023-05-21T19:51:17.671Z,10.82
2023-05-21T19:53:47.266Z,9.43
2023-05-21T19:56:17.414Z,9.52
2023-05-21T19:58:47.849Z,9.57
2023-05-21T20:01:17.452Z,12.95
2023-05-21T20:03:46.266Z,10.05
2023-05-21T20:06:15.565Z,11.30
2023-05-21T20:08:44.038Z,10.40
2023-05-21T20:11:13.873Z,10.23
2023-05-21T20:13:42.229Z,9.70
2023-05-21T20:16:12.844Z,10.60
2023-05-21T20:18:41.745Z,8.93
2023-05-21T20:21:10.735Z,9.95
2023-05-21T20:23:39.156Z,9.93
2023-05-21T20:26:08.048Z,9.52
2023-05-21T20:28:38.172Z,9.05
2023-05-21T20:31:06.534Z,10.25
2023-05-21T20:33:39.375Z,8.90
2023-05-21T20:36:09.202Z,9.27
2023-05-21T20:38:38.405Z,9.45
2023-05-21T20:41:06.823Z,9.93
2023-05-21T20:43:37.559Z,9.85
2023-05-21T20:46:08.031Z,10.27
2023-05-21T20:48:37.875Z,9.70
2023-05-21T20:51:06.333Z,9.70
2023-05-21T20:53:34.402Z,10.85
2023-05-21T20:56:03.631Z,10.02
2023-05-21T20:58:31.733Z,13.32
2023-05-21T21:01:02.011Z,15.30
2023-05-21T21:03:34.413Z,13.40
2023-05-21T21:06:04.575Z,13.10
2023-05-21T21:08:34.808Z,11.50
2023-05-21T21:11:03.095Z,11.23
2023-05-21T21:13:31.252Z,12.63
2023-05-21T21:16:24.755Z,12.25
2023-05-21T21:18:54.634Z,12.07
2023-05-21T21:21:23.193Z,11.48
2023-05-21T21:23:51.490Z,14.35
2023-05-21T21:26:19.860Z,14.60
2023-05-21T21:28:47.983Z,16.02
2023-05-21T21:31:17.748Z,15.20
2023-05-21T21:33:46.231Z,17.48
2023-05-21T21:36:16.154Z,16.30
2023-05-21T21:38:44.435Z,16.10
2023-05-21T21:41:13.968Z,15.90
2023-05-21T21:43:42.328Z,15.50
2023-05-21T21:46:10.565Z,16.45
2023-05-21T21:48:38.758Z,15.82
2023-05-21T21:51:08.485Z,15.10
2023-05-21T21:53:38.305Z,16.85
2023-05-21T21:56:06.555Z,14.85
2023-05-21T21:58:35.216Z,14.10
2023-05-21T22:01:03.341Z,12.70
2023-05-21T22:03:34.886Z,14.70
2023-05-21T22:06:03.334Z,12.05
2023-05-21T22:08:31.638Z,14.05
2023-05-21T22:11:01.479Z,13.52
2023-05-21T22:13:30.415Z,12.85
2023-05-21T22:15:58.579Z,12.48
2023-05-21T22:18:39.469Z,12.85
2023-05-21T22:21:10.375Z,11.80
2023-05-21T22:23:39.904Z,11.73
2023-05-21T22:26:11.127Z,12.80
2023-05-21T22:28:39.427Z,13.27
2023-05-21T22:31:07.631Z,12.95
2023-05-21T22:33:36.745Z,13.00
2023-05-21T22:36:05.268Z,11.95
2023-05-21T22:38:33.237Z,12.68
2023-05-21T22:41:01.394Z,12.13
2023-05-21T22:43:30.847Z,10.52
2023-05-21T22:45:58.826Z,11.90
2023-05-21T22:48:27.141Z,11.57
2023-05-21T22:50:58.181Z,12.18
2023-05-21T22:53:26.931Z,11.75
2023-05-21T22:55:55.063Z,11.88
2023-05-21T22:58:23.434Z,12.10
2023-05-21T23:00:52.959Z,11.70
2023-05-21T23:03:21.116Z,10.57
2023-05-21T23:05:49.574Z,10.23
2023-05-21T23:08:19.175Z,10.55
2023-05-21T23:10:47.385Z,11.75
2023-05-21T23:13:15.877Z,9.63
2023-05-21T23:15:44.255Z,10.98
2023-05-21T23:18:14.012Z,8.73
2023-05-21T23:20:42.565Z,10.35
2023-05-21T23:23:11.075Z,11.00
2023-05-21T23:25:39.160Z,10.70
2023-05-21T23:28:07.565Z,11.80
2023-05-21T23:30:35.755Z,11.85
2023-05-21T23:33:04.210Z,11.55
2023-05-21T23:35:33.688Z,12.00
2023-05-21T23:38:01.822Z,12.05
2023-05-21T23:40:30.228Z,12.90
2023-05-21T23:42:58.527Z,12.55
2023-05-21T23:45:26.658Z,11.45
2023-05-21T23:47:55.169Z,12.32
2023-05-21T23:50:26.019Z,11.70
2023-05-21T23:52:55.569Z,11.55
2023-05-21T23:55:23.530Z,12.85
2023-05-21T23:57:51.557Z,11.73
